Time;durP1;ratioP1;P1;durP2;ratioP2;P2;SDS_P1;SDS_P2;PMS_P1;PMS_P2;Temp;Humidity;BMP_temperature;BMP_pressure;BME280_temperature;BME280_humidity;BME280_pressure;Samples;Min_cycle;Max_cycle;Signal;HPM_P1;HPM_P2
2022/03/17 00:02:06;;;;;;;33.45;20.35;;;10.80;1.00;;;;;;6194298;23;20009;-88
2022/03/17 00:04:33;;;;;;;40.13;22.58;;;11.00;1.00;;;;;;6171167;23;20055;-87
2022/03/17 00:06:59;;;;;;;35.97;21.30;;;10.80;1.00;;;;;;6170836;23;20078;-89
2022/03/17 00:09:25;;;;;;;36.05;21.15;;;10.70;1.00;;;;;;6185681;23;20122;-88
2022/03/17 00:11:52;;;;;;;34.42;21.30;;;10.80;1.00;;;;;;6156498;23;20020;-92
2022/03/17 00:14:18;;;;;;;38.65;21.10;;;11.00;1.00;;;;;;6157281;23;20025;-88
2022/03/17 00:16:43;;;;;;;36.60;23.13;;;11.60;1.00;;;;;;6155770;23;20024;-87
2022/03/17 00:19:09;;;;;;;35.97;22.73;;;10.80;1.00;;;;;;6183042;23;20083;-87
2022/03/17 00:21:36;;;;;;;35.30;22.45;;;10.80;1.00;;;;;;6183182;23;20440;-88
2022/03/17 00:24:03;;;;;;;39.58;23.00;;;10.90;1.00;;;;;;6183289;23;20455;-88
2022/03/17 00:26:29;;;;;;;41.33;21.80;;;10.80;1.00;;;;;;6183336;23;20017;-87
2022/03/17 00:28:55;;;;;;;37.80;22.65;;;10.90;1.00;;;;;;6182433;23;20285;-90
2022/03/17 00:31:21;;;;;;;35.63;22.63;;;10.90;1.00;;;;;;6183070;23;20397;-87
2022/03/17 00:33:46;;;;;;;46.42;24.15;;;10.80;1.00;;;;;;6183012;23;20080;-88
2022/03/17 00:36:12;;;;;;;45.90;23.55;;;10.90;1.00;;;;;;6181951;23;20059;-87
2022/03/17 00:38:38;;;;;;;36.42;21.23;;;12.60;1.00;;;;;;6183133;23;20039;-87
2022/03/17 00:41:04;;;;;;;39.50;22.85;;;10.80;1.00;;;;;;6107510;23;20036;-88
2022/03/17 00:43:29;;;;;;;39.17;23.55;;;10.80;1.00;;;;;;6194841;23;20016;-88
2022/03/17 00:45:56;;;;;;;36.78;24.15;;;12.30;1.00;;;;;;6190872;23;20028;-87
2022/03/17 00:48:21;;;;;;;38.08;23.35;;;10.70;1.00;;;;;;6187312;23;20059;-87
2022/03/17 00:50:47;;;;;;;37.35;23.48;;;10.80;1.00;;;;;;6159407;23;20024;-87
2022/03/17 00:53:13;;;;;;;37.88;23.25;;;10.70;1.00;;;;;;6184593;23;20239;-87
2022/03/17 00:55:38;;;;;;;40.53;23.25;;;10.70;1.00;;;;;;6159069;23;20017;-88
2022/03/17 00:58:04;;;;;;;35.95;22.17;;;10.70;1.00;;;;;;6184608;23;20017;-87
2022/03/17 01:00:30;;;;;;;37.38;22.90;;;11.80;1.00;;;;;;6157971;23;20403;-87
2022/03/17 01:02:57;;;;;;;38.65;23.00;;;11.00;1.00;;;;;;6183636;23;20019;-86
2022/03/17 01:05:23;;;;;;;36.93;22.53;;;10.90;1.00;;;;;;6133570;23;20424;-87
2022/03/17 01:07:53;;;;;;;41.20;24.63;;;10.80;1.00;;;;;;6182860;23;20017;-88
2022/03/17 01:10:19;;;;;;;36.75;23.02;;;10.80;1.00;;;;;;6183580;23;20025;-87
2022/03/17 01:12:46;;;;;;;37.80;23.88;;;11.00;1.00;;;;;;6183711;23;20021;-89
2022/03/17 01:15:14;;;;;;;35.90;23.83;;;10.70;1.00;;;;;;6183936;23;20012;-88
2022/03/17 01:17:40;;;;;;;40.35;23.23;;;10.70;1.00;;;;;;6156741;23;20088;-88
2022/03/17 01:20:07;;;;;;;37.50;23.27;;;12.30;1.00;;;;;;6155863;23;20350;-90
2022/03/17 01:22:33;;;;;;;36.05;23.75;;;10.70;1.00;;;;;;6156507;23;20021;-88
2022/03/17 01:24:59;;;;;;;39.67;23.40;;;12.30;1.00;;;;;;6182552;23;20091;-88
2022/03/17 01:27:25;;;;;;;39.83;23.52;;;12.40;1.00;;;;;;6156369;23;20071;-88
2022/03/17 01:29:52;;;;;;;37.80;23.35;;;10.60;1.00;;;;;;6156360;23;20021;-88
2022/03/17 01:32:20;;;;;;;36.83;22.15;;;10.70;1.00;;;;;;6156119;23;20029;-88
2022/03/17 01:34:46;;;;;;;38.03;24.15;;;10.70;1.00;;;;;;6155712;23;20021;-87
2022/03/17 01:37:11;;;;;;;41.75;25.63;;;10.70;1.00;;;;;;6182295;23;20023;-87
2022/03/17 01:39:38;;;;;;;39.75;22.67;;;11.30;1.00;;;;;;6155642;23;20095;-88
2022/03/17 01:42:06;;;;;;;38.22;23.08;;;9.10;1.00;;;;;;6155574;23;20017;-87
2022/03/17 01:44:32;;;;;;;38.78;24.10;;;10.80;1.00;;;;;;6155969;23;20029;-90
2022/03/17 01:49:43;;;;;;;36.20;23.45;;;12.20;1.00;;;;;;6182479;23;20144;-88
2022/03/17 01:52:09;;;;;;;41.03;24.25;;;11.00;1.00;;;;;;6182052;23;20112;-88
2022/03/17 01:54:35;;;;;;;34.30;22.15;;;10.90;1.00;;;;;;6155728;23;20017;-88
2022/03/17 01:57:08;;;;;;;35.75;23.65;;;10.90;1.00;;;;;;6181698;23;20071;-89
2022/03/17 01:59:36;;;;;;;40.17;23.35;;;10.90;1.00;;;;;;6156204;23;20017;-89
2022/03/17 02:02:12;;;;;;;40.65;23.83;;;11.00;1.00;;;;;;6155903;23;20029;-88
2022/03/17 02:04:41;;;;;;;39.13;23.30;;;10.90;1.00;;;;;;6181525;23;20024;-88
2022/03/17 02:07:06;;;;;;;;;;;11.00;1.00;;;;;;6132125;23;20017;-88
2022/03/17 02:09:33;;;;;;;39.33;25.67;;;11.10;1.00;;;;;;6156181;23;19971;-88
2022/03/17 02:15:00;;;;;;;41.47;27.73;;;10.90;1.00;;;;;;6135198;23;20348;-88
2022/03/17 02:17:30;;;;;;;53.55;28.13;;;10.50;1.00;;;;;;6181550;23;20100;-88
2022/03/17 02:19:58;;;;;;;47.30;27.85;;;10.50;1.00;;;;;;6182141;23;20476;-87
2022/03/17 02:22:26;;;;;;;40.33;26.67;;;11.70;1.00;;;;;;6181925;23;20017;-87
2022/03/17 02:25:38;;;;;;;42.10;26.38;;;10.30;1.00;;;;;;6182126;23;20025;-86
2022/03/17 02:27:47;;;;;;;44.20;26.55;;;10.30;1.00;;;;;;6119628;23;20387;-88
2022/03/17 02:30:18;;;;;;;41.13;26.25;;;10.30;1.00;;;;;;6182427;23;20064;-87
2022/03/17 02:32:44;;;;;;;42.00;25.15;;;10.40;1.00;;;;;;6181725;23;20017;-87
2022/03/17 02:35:13;;;;;;;43.88;26.35;;;10.50;1.00;;;;;;6181231;23;20507;-87
2022/03/17 02:37:39;;;;;;;44.00;27.27;;;10.30;1.00;;;;;;6155364;23;20060;-88
2022/03/17 02:40:07;;;;;;;45.47;25.73;;;10.40;1.00;;;;;;6155745;23;20017;-88
2022/03/17 02:42:34;;;;;;;44.83;27.20;;;10.40;1.00;;;;;;6182502;23;20031;-87
2022/03/17 02:45:01;;;;;;;45.05;27.45;;;10.40;1.00;;;;;;6184576;23;20080;-88
2022/03/17 02:47:27;;;;;;;47.25;26.27;;;10.60;1.00;;;;;;6183736;23;20325;-87
2022/03/17 02:49:55;;;;;;;49.47;26.73;;;10.40;1.00;;;;;;6157754;23;20123;-87
2022/03/17 02:52:22;;;;;;;39.83;24.98;;;10.40;1.00;;;;;;6156642;23;20092;-88
2022/03/17 02:54:49;;;;;;;45.15;25.30;;;10.40;1.00;;;;;;6157695;23;20024;-87
2022/03/17 02:57:14;;;;;;;45.10;26.60;;;10.50;1.00;;;;;;6183531;23;20028;-87
2022/03/17 02:59:40;;;;;;;42.53;26.80;;;10.60;1.00;;;;;;6132583;23;20021;-88
2022/03/17 03:02:06;;;;;;;42.08;27.08;;;12.60;1.00;;;;;;6157644;23;20021;-94
2022/03/17 03:04:33;;;;;;;38.72;26.17;;;8.90;1.00;;;;;;6157374;23;20028;-88
2022/03/17 03:07:02;;;;;;;41.80;26.50;;;10.50;1.00;;;;;;6184011;23;20036;-87
2022/03/17 03:09:28;;;;;;;44.85;27.20;;;10.50;1.00;;;;;;6183106;23;20106;-87
2022/03/17 03:11:54;;;;;;;39.30;26.50;;;10.60;1.00;;;;;;6157420;23;20333;-87
2022/03/17 03:14:21;;;;;;;42.95;26.60;;;10.00;1.00;;;;;;6157155;23;20024;-86
2022/03/17 03:16:48;;;;;;;42.17;26.57;;;11.90;1.00;;;;;;6156332;23;20049;-87
2022/03/17 03:19:14;;;;;;;40.88;26.30;;;11.90;1.00;;;;;;6156341;23;20290;-87
2022/03/17 03:21:40;;;;;;;39.95;27.00;;;10.60;1.00;;;;;;6183512;23;20060;-87
2022/03/17 03:24:06;;;;;;;39.50;26.25;;;12.00;1.00;;;;;;6157587;23;20024;-87
2022/03/17 03:26:31;;;;;;;43.72;26.60;;;10.70;1.00;;;;;;6183000;23;20017;-88
2022/03/17 03:28:57;;;;;;;42.17;27.60;;;10.60;1.00;;;;;;6157184;23;20071;-87
2022/03/17 03:31:23;;;;;;;43.33;26.52;;;10.80;1.00;;;;;;6131728;23;20021;-88
2022/03/17 03:33:50;;;;;;;38.70;26.05;;;10.60;1.00;;;;;;6184014;23;20025;-89
2022/03/17 03:39:03;;;;;;;38.20;27.10;;;11.00;1.00;;;;;;6157527;23;20032;-87
2022/03/17 03:41:29;;;;;;;46.13;28.92;;;11.00;1.00;;;;;;6183317;23;20025;-88
2022/03/17 03:43:55;;;;;;;43.75;26.85;;;10.80;1.00;;;;;;6132633;23;20025;-88
2022/03/17 03:46:21;;;;;;;42.22;26.40;;;10.70;1.00;;;;;;6155514;23;20025;-88
2022/03/17 03:48:47;;;;;;;46.00;27.60;;;10.70;1.00;;;;;;6157437;23;20143;-88
2022/03/17 03:51:13;;;;;;;47.58;28.73;;;10.70;1.00;;;;;;6155417;23;20432;-87
2022/03/17 03:56:25;;;;;;;43.28;27.80;;;11.90;1.00;;;;;;6183001;23;20357;-88
2022/03/17 03:58:50;;;;;;;42.20;27.98;;;10.80;1.00;;;;;;6183871;23;20025;-87
2022/03/17 04:01:18;;;;;;;46.25;29.95;;;12.40;1.00;;;;;;6182418;23;20023;-89
2022/03/17 04:03:44;;;;;;;45.35;29.30;;;10.70;1.00;;;;;;6132330;23;20032;-87
2022/03/17 04:06:10;;;;;;;49.03;30.20;;;10.80;1.00;;;;;;6182778;23;20013;-87
2022/03/17 04:08:36;;;;;;;46.25;31.13;;;10.60;1.00;;;;;;6131840;23;20028;-88
2022/03/17 04:11:02;;;;;;;50.90;35.22;;;10.60;1.00;;;;;;6182939;23;20013;-89
2022/03/17 04:13:28;;;;;;;52.55;36.75;;;;;;;;;;6182939;23;20039;-89
2022/03/17 04:15:56;;;;;;;66.63;40.53;;;10.20;31.40;;;;;;6132323;23;20459;-89
2022/03/17 04:18:22;;;;;;;61.30;40.60;;;10.40;43.40;;;;;;6131949;23;20021;-88
2022/03/17 04:20:48;;;;;;;62.33;41.97;;;10.10;64.80;;;;;;6132201;23;20102;-89
2022/03/17 04:23:16;;;;;;;66.70;40.08;;;8.70;65.60;;;;;;6132664;23;20349;-89
2022/03/17 04:25:42;;;;;;;65.55;43.25;;;9.90;87.10;;;;;;6157039;23;20017;-91
2022/03/17 04:28:08;;;;;;;69.05;45.60;;;10.30;91.40;;;;;;6132199;23;20187;-89
2022/03/17 04:30:36;;;;;;;78.95;46.95;;;9.80;87.50;;;;;;6107677;23;20097;-90
2022/03/17 04:33:02;;;;;;;75.78;46.38;;;;;;;;;;6108423;23;20017;-89
2022/03/17 04:35:28;;;;;;;80.82;49.67;;;10.90;98.40;;;;;;6132423;23;20097;-90
2022/03/17 04:38:00;;;;;;;89.18;49.00;;;;;;;;;;6132916;23;20052;-93
2022/03/17 04:56:48;;;;;;;169.48;73.03;;;;;;;;;;5977986;24;20026;-93
2022/03/17 04:59:15;;;;;;;166.27;71.88;;;9.70;99.90;;;;;;5954143;24;20020;-90
2022/03/17 05:01:40;;;;;;;190.83;77.67;;;9.80;1.00;;;;;;5983183;23;20382;-88
2022/03/17 05:04:06;;;;;;;217.40;84.88;;;11.30;1.00;;;;;;6126280;23;20088;-89
2022/03/17 05:06:32;;;;;;;205.60;80.40;;;9.90;99.90;;;;;;6150809;23;20040;-88
2022/03/17 05:08:59;;;;;;;214.90;82.18;;;9.70;99.90;;;;;;6152884;23;20045;-87
2022/03/17 05:11:25;;;;;;;244.63;85.63;;;10.30;99.90;;;;;;6151409;23;20040;-88
2022/03/17 05:13:51;;;;;;;249.05;89.45;;;9.70;99.90;;;;;;6125849;23;20022;-88
2022/03/17 05:16:17;;;;;;;165.68;62.05;;;10.10;99.90;;;;;;6126109;23;20088;-89
2022/03/17 05:18:43;;;;;;;90.25;32.92;;;10.40;99.90;;;;;;6125581;23;20836;-85
2022/03/17 05:21:09;;;;;;;55.53;22.42;;;9.80;99.90;;;;;;6151926;23;20092;-85
2022/03/17 05:23:35;;;;;;;47.92;22.00;;;9.70;99.90;;;;;;6152251;23;20035;-84
2022/03/17 05:26:01;;;;;;;48.55;21.20;;;10.00;99.90;;;;;;6152027;23;20040;-86
2022/03/17 05:28:27;;;;;;;40.33;19.98;;;11.40;99.90;;;;;;6151652;23;20060;-86
2022/03/17 05:30:52;;;;;;;53.35;23.02;;;9.80;99.90;;;;;;6125137;23;20021;-85
2022/03/17 05:33:19;;;;;;;38.33;20.10;;;9.30;99.90;;;;;;6151543;23;20519;-86
2022/03/17 05:35:45;;;;;;;40.97;22.13;;;10.30;99.90;;;;;;6151518;23;20018;-87
2022/03/17 05:38:11;;;;;;;35.05;18.73;;;10.20;99.90;;;;;;6101789;23;20029;-86
2022/03/17 05:40:38;;;;;;;40.35;21.35;;;9.40;99.90;;;;;;6151562;23;20067;-86
2022/03/17 05:43:06;;;;;;;38.90;20.50;;;10.30;99.90;;;;;;6152147;23;20017;-87
2022/03/17 05:45:32;;;;;;;36.22;19.88;;;9.40;99.90;;;;;;6125755;23;20028;-87
2022/03/17 05:48:00;;;;;;;42.05;20.38;;;9.30;99.90;;;;;;6152725;23;20028;-86
2022/03/17 05:50:28;;;;;;;46.33;23.38;;;9.00;99.90;;;;;;6099853;23;20022;-87
2022/03/17 05:52:54;;;;;;;40.10;20.65;;;9.50;99.90;;;;;;6171608;23;20025;-87
2022/03/17 05:55:22;;;;;;;56.65;23.48;;;8.90;99.90;;;;;;6182778;23;20036;-87
2022/03/17 05:57:49;;;;;;;49.45;23.02;;;9.20;99.90;;;;;;6178542;23;20095;-86
2022/03/17 06:00:17;;;;;;;53.33;24.03;;;9.20;99.90;;;;;;6154751;23;20091;-86
2022/03/17 06:02:43;;;;;;;57.95;25.23;;;9.20;99.90;;;;;;6180971;23;20244;-87
2022/03/17 06:05:10;;;;;;;57.88;26.15;;;9.20;99.90;;;;;;6131014;23;20439;-86
2022/03/17 06:07:37;;;;;;;54.65;26.35;;;9.00;99.90;;;;;;6181548;23;20035;-86
2022/03/17 06:10:06;;;;;;;51.00;23.80;;;10.40;99.90;;;;;;6180806;23;20059;-86
2022/03/17 06:12:32;;;;;;;58.97;25.95;;;8.70;99.90;;;;;;6181556;23;20033;-86
2022/03/17 06:14:59;;;;;;;59.92;25.75;;;8.80;99.90;;;;;;6182114;23;20455;-86
2022/03/17 06:17:38;;;;;;;49.95;24.42;;;8.80;99.90;;;;;;6155777;23;20025;-86
2022/03/17 06:20:04;;;;;;;;;;;8.90;99.90;;;;;;6183907;23;20091;-88
2022/03/17 06:22:29;;;;;;;53.95;21.52;;;9.10;99.90;;;;;;6183307;23;19920;-87
2022/03/17 06:24:55;;;;;;;46.97;21.10;;;9.00;99.90;;;;;;6181418;23;20340;-88
2022/03/17 06:27:21;;;;;;;49.53;20.35;;;9.70;99.90;;;;;;6183439;23;20040;-87
2022/03/17 06:29:46;;;;;;;41.42;18.90;;;8.90;99.90;;;;;;6183073;23;20086;-88
2022/03/17 06:32:12;;;;;;;48.90;18.30;;;8.70;99.90;;;;;;6183489;23;20099;-87
2022/03/17 06:34:38;;;;;;;50.80;16.42;;;9.10;99.90;;;;;;6182692;23;20052;-88
2022/03/17 06:37:03;;;;;;;40.63;17.05;;;8.90;99.90;;;;;;6157855;23;20066;-88
2022/03/17 06:39:29;;;;;;;40.70;15.23;;;8.70;99.90;;;;;;6183724;23;20474;-87
2022/03/17 06:41:55;;;;;;;49.42;14.35;;;10.40;99.90;;;;;;6184419;23;20063;-87
2022/03/17 06:44:21;;;;;;;53.53;13.93;;;8.70;99.90;;;;;;6185207;23;20025;-86
2022/03/17 06:46:46;;;;;;;38.08;14.63;;;9.50;99.90;;;;;;6156498;23;20020;-87
2022/03/17 06:49:12;;;;;;;41.50;11.57;;;8.60;99.90;;;;;;6184100;23;20107;-87
2022/03/17 06:51:38;;;;;;;36.55;11.25;;;9.00;99.90;;;;;;6153041;23;20091;-87
2022/03/17 06:54:03;;;;;;;33.55;10.80;;;8.90;99.90;;;;;;6185421;23;20036;-87
2022/03/17 06:56:31;;;;;;;33.40;10.85;;;8.50;99.90;;;;;;6184656;23;20446;-88
2022/03/17 06:58:57;;;;;;;28.58;9.82;;;9.00;99.90;;;;;;6185309;23;20092;-88
2022/03/17 07:01:22;;;;;;;31.58;8.40;;;8.50;99.90;;;;;;6183501;23;20391;-86
2022/03/17 07:03:48;;;;;;;32.45;8.50;;;9.40;99.90;;;;;;6183541;23;20111;-87
2022/03/17 07:06:14;;;;;;;22.23;7.07;;;8.60;99.90;;;;;;6183723;23;20052;-87
2022/03/17 07:08:45;;;;;;;27.65;5.68;;;8.20;99.90;;;;;;6183010;23;20048;-85
2022/03/17 07:11:21;;;;;;;21.42;5.40;;;8.50;99.90;;;;;;6158936;23;20028;-87
2022/03/17 07:13:47;;;;;;;21.90;5.20;;;8.50;99.90;;;;;;6182922;23;20063;-87
2022/03/17 07:16:13;;;;;;;29.80;5.65;;;8.90;99.90;;;;;;6182785;23;20029;-87
2022/03/17 07:18:39;;;;;;;24.80;5.45;;;10.00;99.90;;;;;;6157065;23;20052;-88
2022/03/17 07:21:05;;;;;;;21.15;5.13;;;9.20;99.90;;;;;;6179227;23;20471;-88
2022/03/17 07:23:31;;;;;;;18.35;4.57;;;8.70;99.90;;;;;;6157213;23;20101;-88
2022/03/17 07:25:57;;;;;;;21.92;5.03;;;8.50;99.90;;;;;;6156595;23;20025;-88
2022/03/17 07:28:22;;;;;;;26.85;4.88;;;8.50;99.90;;;;;;6183439;23;20021;-89
2022/03/17 07:30:48;;;;;;;23.35;4.82;;;8.80;99.90;;;;;;6182377;23;20029;-88
2022/03/17 07:33:14;;;;;;;29.85;4.38;;;8.90;99.90;;;;;;6183502;23;20167;-88
2022/03/17 07:35:40;;;;;;;16.67;3.95;;;8.90;99.90;;;;;;6181921;23;20095;-87
2022/03/17 07:38:06;;;;;;;24.15;4.28;;;10.50;99.90;;;;;;6183239;23;20021;-87
2022/03/17 07:40:33;;;;;;;21.95;3.85;;;9.00;99.90;;;;;;6183161;23;20017;-88
2022/03/17 07:43:00;;;;;;;19.35;3.85;;;8.90;99.90;;;;;;6157036;23;20024;-87
2022/03/17 07:45:26;;;;;;;18.20;3.30;;;10.80;99.90;;;;;;6183343;23;20013;-87
2022/03/17 07:47:53;;;;;;;25.73;3.35;;;8.70;99.90;;;;;;6181597;23;20056;-88
2022/03/17 07:50:19;;;;;;;22.35;3.78;;;10.50;99.90;;;;;;6180758;23;20505;-88
2022/03/17 07:52:45;;;;;;;20.75;2.63;;;8.90;99.90;;;;;;6181870;23;20455;-87
2022/03/17 07:55:11;;;;;;;23.73;3.35;;;9.50;99.90;;;;;;6157927;23;20024;-89
2022/03/17 07:57:38;;;;;;;22.77;3.13;;;8.60;99.90;;;;;;6157099;23;20021;-88
2022/03/17 08:00:05;;;;;;;21.60;3.30;;;10.10;99.90;;;;;;6183612;23;20052;-88
2022/03/17 08:02:31;;;;;;;22.80;3.22;;;9.00;99.90;;;;;;6182903;23;20092;-88
2022/03/17 08:05:01;;;;;;;23.75;3.13;;;8.70;99.90;;;;;;6182857;23;20056;-88
2022/03/17 08:07:28;;;;;;;21.00;3.30;;;8.40;99.90;;;;;;6184267;23;20035;-88
2022/03/17 08:09:54;;;;;;;26.17;2.70;;;9.20;99.90;;;;;;6183046;23;20460;-88
2022/03/17 08:12:20;;;;;;;27.15;3.72;;;10.40;99.90;;;;;;6182988;23;20245;-89
2022/03/17 08:14:47;;;;;;;25.30;3.87;;;8.90;99.90;;;;;;6182661;23;20025;-88
2022/03/17 08:17:12;;;;;;;27.42;3.45;;;8.80;99.90;;;;;;6182510;23;20032;-88
2022/03/17 08:19:38;;;;;;;18.45;3.10;;;8.70;99.90;;;;;;6181468;23;20025;-88
2022/03/17 08:22:04;;;;;;;29.52;4.80;;;8.80;99.90;;;;;;6181089;23;20396;-87
2022/03/17 08:24:29;;;;;;;24.70;3.63;;;8.90;99.90;;;;;;6181080;23;20021;-87
2022/03/17 08:26:56;;;;;;;28.00;3.40;;;9.10;99.90;;;;;;6156047;23;20264;-86
2022/03/17 08:29:22;;;;;;;22.38;3.67;;;9.20;99.90;;;;;;6156525;23;20025;-87
2022/03/17 08:31:47;;;;;;;26.00;3.53;;;7.30;99.90;;;;;;6177896;23;20028;-87
2022/03/17 08:34:13;;;;;;;39.88;4.10;;;8.90;99.90;;;;;;6182049;23;20147;-88
2022/03/17 08:36:39;;;;;;;22.35;3.90;;;8.90;99.90;;;;;;6130204;23;20020;-88
2022/03/17 08:39:05;;;;;;;21.80;3.38;;;8.90;99.90;;;;;;6182842;23;20364;-88
2022/03/17 08:41:31;;;;;;;19.65;3.28;;;9.00;99.90;;;;;;6156053;23;20055;-88
2022/03/17 08:43:57;;;;;;;26.30;4.03;;;9.20;99.90;;;;;;6181978;23;20104;-88
2022/03/17 08:49:19;;;;;;;33.90;3.97;;;9.00;99.90;;;;;;6183674;23;20345;-89
2022/03/17 08:51:50;;;;;;;26.10;4.00;;;9.90;99.90;;;;;;6182285;23;20067;-89
2022/03/17 08:54:18;;;;;;;24.10;3.50;;;9.00;99.90;;;;;;6156516;23;20387;-88
2022/03/17 08:56:43;;;;;;;23.80;3.53;;;9.00;99.90;;;;;;6155706;23;20082;-89
2022/03/17 08:59:10;;;;;;;23.75;3.97;;;9.20;99.90;;;;;;6183880;23;20416;-87
2022/03/17 09:01:37;;;;;;;24.88;3.83;;;9.10;99.90;;;;;;6183243;23;20017;-88
2022/03/17 09:04:06;;;;;;;29.38;3.92;;;9.90;99.90;;;;;;6183908;23;20013;-89
2022/03/17 09:06:32;;;;;;;16.70;3.33;;;9.00;99.90;;;;;;6182856;23;20013;-90
2022/03/17 09:08:58;;;;;;;16.88;2.90;;;9.30;99.90;;;;;;6131691;23;20020;-89
2022/03/17 09:11:24;;;;;;;26.33;3.90;;;11.40;99.90;;;;;;6183971;23;20063;-90
2022/03/17 09:13:49;;;;;;;33.90;4.07;;;9.30;99.90;;;;;;6156880;23;20025;-90
2022/03/17 09:16:16;;;;;;;21.85;3.80;;;11.30;99.90;;;;;;6183859;23;20021;-90
2022/03/17 09:18:42;;;;;;;20.77;3.45;;;9.40;99.90;;;;;;6157989;23;20038;-90
2022/03/17 09:21:09;;;;;;;19.45;4.03;;;9.50;99.90;;;;;;6184317;23;20025;-90
2022/03/17 09:23:35;;;;;;;22.23;3.72;;;9.60;99.90;;;;;;6184712;23;20424;-90
2022/03/17 09:26:00;;;;;;;16.60;3.38;;;9.60;99.90;;;;;;6158454;23;20036;-91
2022/03/17 09:28:27;;;;;;;17.42;2.75;;;10.50;99.90;;;;;;6186030;23;20021;-91
2022/03/17 09:30:54;;;;;;;22.13;4.00;;;9.10;99.90;;;;;;6157874;23;20040;-91
2022/03/17 09:33:25;;;;;;;19.85;3.85;;;9.30;99.90;;;;;;6159721;23;20024;-92
2022/03/17 09:35:57;;;;;;;28.30;3.67;;;10.60;99.90;;;;;;6185949;23;20013;-93
2022/03/17 09:38:24;;;;;;;27.95;3.88;;;9.20;99.90;;;;;;6186307;23;20025;-93
2022/03/17 09:40:50;;;;;;;21.43;3.80;;;11.50;99.90;;;;;;6185024;23;20040;-93
2022/03/17 09:43:18;;;;;;;19.85;3.05;;;9.40;99.90;;;;;;6134467;23;20266;-94
2022/03/17 09:45:50;;;;;;;17.65;3.05;;;9.60;99.90;;;;;;6185163;23;20389;-95
2022/03/17 09:48:17;;;;;;;30.30;4.32;;;9.60;99.90;;;;;;6185252;23;20017;-93
2022/03/17 09:50:47;;;;;;;22.10;3.90;;;9.60;99.90;;;;;;6158581;23;20099;-93
2022/03/17 09:53:13;;;;;;;21.95;3.47;;;11.20;99.90;;;;;;6187199;23;20117;-94
2022/03/17 09:55:43;;;;;;;22.30;3.30;;;10.20;99.90;;;;;;6137438;23;20045;-93
2022/03/17 09:58:10;;;;;;;18.70;3.88;;;8.50;99.90;;;;;;6188791;23;20450;-94
2022/03/17 10:00:52;;;;;;;15.57;2.67;;;12.70;99.90;;;;;;6163969;23;20020;-94
2022/03/17 10:03:38;;;;;;;13.93;2.80;;;10.50;99.90;;;;;;6140052;23;20021;-93
2022/03/17 10:06:21;;;;;;;20.30;3.17;;;10.50;99.90;;;;;;6136873;23;20417;-94
2022/03/17 10:08:54;;;;;;;20.33;3.30;;;10.70;99.90;;;;;;6116298;23;20033;-94
2022/03/17 10:11:42;;;;;;;18.70;2.97;;;11.40;99.90;;;;;;6140556;23;20103;-95
2022/03/17 10:15:33;;;;;;;;;;;;;;;;;;;;;
2022/03/17 11:25:44;;;;;;;;;;;;;;;;;;;;;
2022/03/17 11:29:37;;;;;;;;;;;;;;;;;;;;;
2022/03/17 11:33:01;;;;;;;16.65;2.72;;;17.00;1.00;;;;;;6068482;23;20468;-89
2022/03/17 11:35:29;;;;;;;;;;;17.60;1.00;;;;;;6066964;23;20018;-89
2022/03/17 11:38:22;;;;;;;17.67;2.90;;;16.40;1.00;;;;;;6043796;23;20289;-89
2022/03/17 11:41:17;;;;;;;14.90;2.60;;;15.80;1.00;;;;;;6041810;23;20518;-89
2022/03/17 11:43:45;;;;;;;16.95;2.88;;;15.60;1.00;;;;;;6041982;23;20022;-88
2022/03/17 11:46:20;;;;;;;16.65;3.33;;;14.40;1.00;;;;;;6041626;23;20103;-87
2022/03/17 11:48:52;;;;;;;20.65;3.03;;;13.90;1.00;;;;;;6090573;23;20015;-91
2022/03/17 11:51:19;;;;;;;19.38;2.92;;;15.90;1.00;;;;;;6041653;23;20023;-88
2022/03/17 11:53:51;;;;;;;14.05;2.58;;;16.70;1.00;;;;;;6041898;23;20022;-87
2022/03/17 11:56:47;;;;;;;10.23;2.78;;;17.80;1.00;;;;;;6065745;23;20477;-89
2022/03/17 11:59:16;;;;;;;15.85;2.97;;;18.20;1.00;;;;;;6064768;23;20034;-88
2022/03/17 12:01:46;;;;;;;12.80;2.67;;;19.00;1.00;;;;;;6063043;23;20462;-88
2022/03/17 12:04:30;;;;;;;10.52;2.88;;;19.40;1.00;;;;;;6065279;23;20026;-87
2022/03/17 12:07:18;;;;;;;11.18;2.40;;;19.40;99.90;;;;;;6065271;23;20074;-86
2022/03/17 12:09:44;;;;;;;17.38;2.80;;;19.60;99.90;;;;;;6067019;23;20319;-87
2022/03/17 12:12:25;;;;;;;21.02;3.22;;;19.30;1.00;;;;;;6017079;23;20019;-88
2022/03/17 12:14:59;;;;;;;14.48;2.85;;;18.10;99.90;;;;;;6065798;23;20118;-87
2022/03/17 12:17:26;;;;;;;16.50;2.75;;;17.00;1.00;;;;;;6040183;23;20065;-86
2022/03/17 12:20:05;;;;;;;15.40;3.40;;;16.10;1.00;;;;;;6040289;23;20026;-91
2022/03/17 12:22:31;;;;;;;16.77;3.05;;;16.40;1.00;;;;;;6040320;23;20030;-86
2022/03/17 12:25:11;;;;;;;16.52;3.10;;;15.40;1.00;;;;;;6063701;23;20019;-85
2022/03/17 12:27:38;;;;;;;15.27;2.70;;;15.20;1.00;;;;;;6041586;23;20027;-86
2022/03/17 12:30:08;;;;;;;13.75;3.05;;;14.90;1.00;;;;;;6067426;23;20328;-85
2022/03/17 12:32:45;;;;;;;13.32;2.88;;;14.70;1.00;;;;;;6041291;23;20022;-85
2022/03/17 12:35:12;;;;;;;14.55;3.03;;;14.40;1.00;;;;;;6066773;23;20338;-85
2022/03/17 12:37:40;;;;;;;14.88;3.08;;;14.20;1.00;;;;;;6063842;23;20330;-85
2022/03/17 12:40:07;;;;;;;15.43;2.72;;;13.20;1.00;;;;;;6065043;23;20046;-84
2022/03/17 12:42:42;;;;;;;;;;;14.00;1.00;;;;;;6067264;23;20065;-84
2022/03/17 12:45:11;;;;;;;17.33;3.10;;;13.80;1.00;;;;;;6066767;23;20072;-84
2022/03/17 12:47:41;;;;;;;15.88;2.63;;;13.70;1.00;;;;;;6066405;23;20150;-86
2022/03/17 12:50:16;;;;;;;10.20;2.30;;;13.70;1.00;;;;;;6066429;23;20440;-86
2022/03/17 12:52:43;;;;;;;20.35;2.80;;;13.80;1.00;;;;;;6088967;23;20127;-84
2022/03/17 12:55:11;;;;;;;12.57;2.97;;;13.70;1.00;;;;;;6066266;23;20011;-84
2022/03/17 12:57:38;;;;;;;;;;;13.90;1.00;;;;;;6065630;23;20023;-87
2022/03/17 13:00:18;;;;;;;9.80;2.22;;;13.40;1.00;;;;;;6066938;23;19959;-83
2022/03/17 13:02:48;;;;;;;11.70;2.45;;;13.10;1.00;;;;;;6089538;23;20022;-84
2022/03/17 13:08:04;;;;;;;18.17;2.67;;;12.90;1.00;;;;;;6089378;23;20375;-85
2022/03/17 13:14:20;;;;;;;16.93;2.60;;;12.80;1.00;;;;;;6066452;23;20023;-85
2022/03/17 13:16:10;;;;;;;16.38;2.55;;;12.60;1.00;;;;;;6066953;23;20101;-84
2022/03/17 13:18:40;;;;;;;17.55;2.75;;;12.40;1.00;;;;;;6065401;23;20145;-85
2022/03/17 13:21:08;;;;;;;18.52;2.50;;;12.40;1.00;;;;;;6064989;23;20080;-86
2022/03/17 13:23:35;;;;;;;16.23;3.17;;;12.20;1.00;;;;;;6064991;23;20023;-85
2022/03/17 13:26:01;;;;;;;13.88;2.75;;;12.30;1.00;;;;;;6064150;23;20033;-85
2022/03/17 13:28:26;;;;;;;14.18;2.70;;;12.10;1.00;;;;;;6079770;23;20015;-84
2022/03/17 13:30:53;;;;;;;14.27;2.35;;;11.80;1.00;;;;;;6064764;23;20053;-85
2022/03/17 13:33:27;;;;;;;22.43;3.10;;;11.80;1.00;;;;;;6040886;23;20380;-86
2022/03/17 13:35:56;;;;;;;10.93;2.05;;;11.80;1.00;;;;;;6041795;23;20137;-84
2022/03/17 13:38:35;;;;;;;15.13;2.47;;;11.10;1.00;;;;;;6066490;23;20054;-84
2022/03/17 13:41:02;;;;;;;12.90;2.38;;;11.70;1.00;;;;;;6066748;23;20063;-85
2022/03/17 13:43:30;;;;;;;13.88;2.75;;;11.70;1.00;;;;;;6088683;23;20122;-84
2022/03/17 13:45:56;;;;;;;;;;;11.70;1.00;;;;;;6067799;23;20142;-85
2022/03/17 13:48:25;;;;;;;12.70;2.10;;;10.40;1.00;;;;;;6066841;23;19917;-85
2022/03/17 13:50:52;;;;;;;;;;;11.60;1.00;;;;;;6067132;23;20292;-84
2022/03/17 13:53:25;;;;;;;12.57;2.33;;;11.50;1.00;;;;;;6040850;23;19996;-84
2022/03/17 13:55:57;;;;;;;14.93;2.40;;;11.90;1.00;;;;;;6089212;23;20082;-84
2022/03/17 13:58:28;;;;;;;17.08;2.83;;;11.40;1.00;;;;;;6066896;23;20019;-84
2022/03/17 14:01:12;;;;;;;13.07;2.30;;;11.50;1.00;;;;;;6066891;23;20018;-84
2022/03/17 14:03:44;;;;;;;15.55;2.78;;;11.40;1.00;;;;;;6040925;23;20375;-84
2022/03/17 14:06:10;;;;;;;14.07;2.40;;;11.50;1.00;;;;;;6041844;23;20034;-84
2022/03/17 14:08:38;;;;;;;12.70;2.45;;;10.60;1.00;;;;;;6065622;23;20431;-84
2022/03/17 14:11:05;;;;;;;;;;;11.50;1.00;;;;;;6067078;23;20026;-84
2022/03/17 14:13:32;;;;;;;11.25;2.30;;;11.50;1.00;;;;;;6066632;23;19961;-84
2022/03/17 14:15:57;;;;;;;13.20;2.20;;;11.40;1.00;;;;;;6064933;23;20499;-84
2022/03/17 14:18:23;;;;;;;12.35;2.20;;;11.50;1.00;;;;;;6041285;23;20054;-85
2022/03/17 14:20:49;;;;;;;9.45;2.20;;;13.00;1.00;;;;;;6066465;23;20023;-84
2022/03/17 14:25:59;;;;;;;15.35;2.58;;;11.30;1.00;;;;;;6064612;23;20054;-84
2022/03/17 14:28:25;;;;;;;11.45;2.17;;;11.20;1.00;;;;;;6065913;23;20033;-84
2022/03/17 14:30:51;;;;;;;14.15;2.50;;;11.20;1.00;;;;;;6066193;23;20023;-84
2022/03/17 14:33:17;;;;;;;11.82;2.50;;;11.30;1.00;;;;;;6063577;23;20045;-88
2022/03/17 14:35:43;;;;;;;12.65;2.20;;;11.20;1.00;;;;;;6040473;23;20082;-85
2022/03/17 14:38:09;;;;;;;16.48;2.70;;;11.10;1.00;;;;;;6066593;23;20014;-84
2022/03/17 14:40:35;;;;;;;11.75;2.35;;;11.30;1.00;;;;;;6068892;23;20023;-84
2022/03/17 14:43:01;;;;;;;14.45;2.38;;;11.70;1.00;;;;;;6090247;23;20023;-84